createdAt,value
2023-05-10T00:01:07.109Z,36.84
2023-05-10T00:03:34.088Z,36.74
2023-05-10T00:06:01.062Z,37.04
2023-05-10T00:08:27.919Z,37.11
2023-05-10T00:10:54.834Z,37.09
2023-05-10T00:13:21.937Z,37.34
2023-05-10T00:15:48.841Z,37.61
2023-05-10T00:18:15.766Z,37.90
2023-05-10T00:20:42.762Z,37.60
2023-05-10T00:23:09.665Z,38.28
2023-05-10T00:25:36.558Z,38.56
2023-05-10T00:28:03.430Z,38.82
2023-05-10T00:30:30.770Z,39.04
2023-05-10T00:32:57.668Z,39.09
2023-05-10T00:35:24.717Z,38.99
2023-05-10T00:37:51.669Z,39.35
2023-05-10T00:40:18.918Z,39.09
2023-05-10T00:42:49.778Z,39.13
2023-05-10T00:45:16.635Z,39.39
2023-05-10T00:47:43.689Z,39.34
2023-05-10T00:50:11.009Z,39.19
2023-05-10T00:52:38.186Z,39.55
2023-05-10T00:55:06.855Z,39.51
2023-05-10T00:57:33.871Z,39.51
2023-05-10T01:00:00.877Z,39.59
2023-05-10T01:02:28.067Z,39.44
2023-05-10T01:04:55.546Z,39.52
2023-05-10T01:07:22.514Z,39.48
2023-05-10T01:09:49.424Z,39.59
2023-05-10T01:12:16.535Z,39.05
2023-05-10T01:14:44.186Z,39.49
2023-05-10T01:17:13.354Z,40.33
2023-05-10T01:19:40.610Z,39.42
2023-05-10T01:22:48.491Z,39.74
2023-05-10T01:25:38.612Z,39.78
2023-05-10T01:28:17.722Z,40.14
2023-05-10T01:31:07.512Z,40.46
2023-05-10T01:33:42.780Z,40.41
2023-05-10T01:36:18.752Z,39.91
2023-05-10T01:38:53.993Z,40.31
2023-05-10T01:41:44.990Z,39.78
2023-05-10T01:44:21.613Z,39.71
2023-05-10T01:46:59.337Z,39.98
2023-05-10T01:49:35.704Z,40.13
2023-05-10T01:52:10.572Z,39.85
2023-05-10T01:54:42.736Z,39.23
2023-05-10T01:57:11.899Z,39.40
2023-05-10T01:59:41.101Z,39.41
2023-05-10T02:02:09.771Z,39.40
2023-05-10T02:04:39.576Z,39.64
2023-05-10T02:07:09.568Z,39.09
2023-05-10T02:09:38.059Z,39.09
2023-05-10T02:12:07.450Z,38.85
2023-05-10T02:14:38.105Z,38.77
2023-05-10T02:17:08.714Z,38.57
2023-05-10T02:19:39.215Z,38.55
2023-05-10T02:22:06.952Z,38.27
2023-05-10T02:24:36.000Z,38.39
2023-05-10T02:27:05.002Z,38.11
2023-05-10T02:29:33.615Z,37.50
2023-05-10T02:32:01.409Z,38.11
2023-05-10T02:34:29.244Z,37.66
2023-05-10T02:36:57.180Z,38.00
2023-05-10T02:39:25.860Z,38.60
2023-05-10T02:41:54.455Z,38.26
2023-05-10T02:44:23.567Z,37.75
2023-05-10T02:46:50.980Z,38.17
2023-05-10T02:49:18.150Z,37.72
2023-05-10T02:51:59.351Z,37.76
2023-05-10T02:54:31.386Z,35.94
2023-05-10T02:57:01.511Z,32.97
2023-05-10T02:59:28.677Z,30.71
2023-05-10T03:01:55.690Z,31.86
2023-05-10T03:04:23.094Z,31.36
2023-05-10T03:06:52.064Z,32.12
2023-05-10T03:09:20.007Z,31.59
2023-05-10T03:12:08.245Z,29.92
2023-05-10T03:14:50.715Z,28.93
2023-05-10T03:17:30.322Z,28.00
2023-05-10T03:20:03.997Z,26.37
2023-05-10T03:22:56.519Z,26.09
2023-05-10T03:25:25.586Z,26.09
2023-05-10T03:27:53.804Z,25.29
2023-05-10T03:30:21.337Z,25.10
2023-05-10T03:32:48.388Z,25.03
2023-05-10T03:35:17.720Z,23.08
2023-05-10T03:37:45.103Z,22.99
2023-05-10T03:40:12.580Z,24.83
2023-05-10T03:42:41.966Z,24.75
2023-05-10T03:45:09.750Z,24.08
2023-05-10T03:47:36.940Z,24.91
2023-05-10T03:50:04.511Z,25.48
2023-05-10T03:52:31.528Z,25.63
2023-05-10T03:54:58.493Z,25.89
2023-05-10T03:57:25.471Z,26.20
2023-05-10T03:59:52.553Z,27.17
2023-05-10T04:02:19.549Z,27.22
2023-05-10T04:04:46.547Z,27.68
2023-05-10T04:07:13.548Z,27.96
2023-05-10T04:09:40.681Z,27.99
2023-05-10T04:12:10.137Z,28.47
2023-05-10T04:14:37.960Z,29.26
2023-05-10T04:17:05.013Z,30.21
2023-05-10T04:19:32.832Z,30.94
2023-05-10T04:22:00.039Z,30.35
2023-05-10T04:24:26.962Z,31.26
2023-05-10T04:26:57.642Z,30.88
2023-05-10T04:29:24.963Z,31.58
2023-05-10T04:31:51.894Z,31.74
2023-05-10T04:34:18.852Z,32.06
2023-05-10T04:36:45.699Z,32.42
2023-05-10T04:39:12.720Z,32.81
2023-05-10T04:41:41.067Z,33.03
2023-05-10T04:44:08.074Z,33.60
2023-05-10T04:46:35.006Z,33.80
2023-05-10T04:49:01.961Z,33.78
2023-05-10T04:51:28.818Z,34.01
2023-05-10T04:54:05.066Z,33.88
2023-05-10T04:56:33.265Z,33.29
2023-05-10T04:59:00.438Z,33.20
2023-05-10T05:01:27.414Z,33.52
2023-05-10T05:03:54.359Z,33.75
2023-05-10T05:06:21.614Z,33.62
2023-05-10T05:08:48.466Z,33.46
2023-05-10T05:11:15.388Z,32.98
2023-05-10T05:13:42.279Z,32.80
2023-05-10T05:16:09.335Z,33.27
2023-05-10T05:18:36.160Z,33.06
2023-05-10T05:21:03.250Z,32.89
2023-05-10T05:23:30.141Z,32.04
2023-05-10T05:25:57.205Z,31.61
2023-05-10T05:28:24.087Z,32.10
2023-05-10T05:30:51.037Z,31.62
2023-05-10T05:33:17.982Z,30.96
2023-05-10T05:35:44.980Z,31.30
2023-05-10T05:38:11.831Z,31.30
2023-05-10T05:40:38.736Z,31.64
2023-05-10T05:43:05.628Z,31.47
2023-05-10T05:45:32.764Z,31.57
2023-05-10T05:47:59.935Z,31.00
2023-05-10T05:50:26.937Z,30.63
2023-05-10T05:52:53.803Z,30.01
2023-05-10T05:55:20.734Z,29.96
2023-05-10T05:57:47.628Z,30.39
2023-05-10T06:00:15.050Z,29.55
2023-05-10T06:02:41.857Z,30.08
2023-05-10T06:05:09.434Z,30.58
2023-05-10T06:07:36.346Z,29.71
2023-05-10T06:10:03.572Z,29.39
2023-05-10T06:12:30.467Z,29.28
2023-05-10T06:14:57.528Z,30.04
2023-05-10T06:17:24.401Z,28.92
2023-05-10T06:19:51.478Z,29.37
2023-05-10T06:22:18.367Z,29.34
2023-05-10T06:24:45.359Z,28.83
2023-05-10T06:27:12.193Z,28.83
2023-05-10T06:29:39.137Z,28.90
2023-05-10T06:32:06.031Z,28.39
2023-05-10T06:34:32.940Z,28.12
2023-05-10T06:36:59.822Z,28.03
2023-05-10T06:39:26.748Z,28.68
2023-05-10T06:41:53.628Z,28.93
2023-05-10T06:44:20.530Z,27.82
2023-05-10T06:46:47.499Z,28.03
2023-05-10T06:49:14.465Z,28.24
2023-05-10T06:51:41.408Z,27.61
2023-05-10T06:54:08.350Z,26.64
2023-05-10T06:56:35.209Z,27.16
2023-05-10T06:59:02.145Z,27.34
2023-05-10T07:01:29.074Z,26.84
2023-05-10T07:03:56.161Z,26.89
2023-05-10T07:06:32.931Z,26.79
2023-05-10T07:09:01.477Z,25.75
2023-05-10T07:11:28.411Z,25.09
2023-05-10T07:13:55.327Z,25.81
2023-05-10T07:16:22.247Z,25.61
2023-05-10T07:18:49.244Z,25.55
2023-05-10T07:21:16.203Z,26.12
2023-05-10T07:23:45.141Z,26.46
2023-05-10T07:26:12.176Z,25.67
2023-05-10T07:28:39.146Z,25.73
2023-05-10T07:31:06.164Z,26.04
2023-05-10T07:33:33.089Z,25.00
2023-05-10T07:35:59.924Z,24.83
2023-05-10T07:38:26.949Z,25.23
2023-05-10T07:40:53.797Z,24.55
2023-05-10T07:43:20.712Z,24.43
2023-05-10T07:45:47.561Z,25.03
2023-05-10T07:48:14.525Z,25.04
2023-05-10T07:50:41.425Z,23.92
2023-05-10T07:53:08.413Z,24.36
2023-05-10T07:55:35.832Z,24.91
2023-05-10T07:58:02.844Z,24.58
2023-05-10T08:00:29.778Z,23.48
2023-05-10T08:02:56.961Z,23.86
2023-05-10T08:05:23.850Z,23.98
2023-05-10T08:07:51.097Z,23.57
2023-05-10T08:10:18.026Z,22.96
2023-05-10T08:12:45.127Z,23.66
2023-05-10T08:15:12.049Z,24.35
2023-05-10T08:17:39.046Z,24.61
2023-05-10T08:20:06.455Z,23.31
2023-05-10T08:22:33.427Z,20.65
2023-05-10T08:25:00.257Z,23.23
2023-05-10T08:27:27.365Z,23.49
2023-05-10T08:29:54.208Z,22.55
2023-05-10T08:32:21.150Z,22.53
2023-05-10T08:34:48.012Z,22.28
2023-05-10T08:37:15.129Z,20.58
2023-05-10T08:39:42.040Z,20.68
2023-05-10T08:42:10.435Z,20.39
2023-05-10T08:44:38.169Z,20.58
2023-05-10T08:47:09.538Z,21.13
2023-05-10T08:49:38.711Z,21.06
2023-05-10T08:52:08.216Z,21.51
2023-05-10T08:54:35.323Z,21.96
2023-05-10T08:57:02.764Z,21.31
2023-05-10T08:59:30.070Z,20.72
2023-05-10T09:01:58.877Z,21.34
2023-05-10T09:04:26.134Z,21.81
2023-05-10T09:06:53.435Z,21.76
2023-05-10T09:09:21.463Z,21.03
2023-05-10T09:11:49.018Z,21.31
2023-05-10T09:14:16.429Z,21.48
2023-05-10T09:16:43.749Z,21.01
2023-05-10T09:19:11.375Z,20.70
2023-05-10T09:21:38.438Z,20.75
2023-05-10T09:24:06.617Z,20.22
2023-05-10T09:26:33.954Z,20.65
2023-05-10T09:29:02.307Z,20.14
2023-05-10T09:31:52.284Z,20.57
2023-05-10T09:34:21.012Z,20.59
2023-05-10T09:36:58.033Z,20.93
2023-05-10T09:39:35.484Z,20.43
2023-05-10T09:42:10.029Z,21.38
2023-05-10T09:44:37.631Z,20.61
2023-05-10T09:47:05.122Z,19.83
2023-05-10T09:49:32.132Z,19.30
2023-05-10T09:52:07.205Z,20.00
2023-05-10T09:54:35.101Z,19.91
2023-05-10T09:57:02.695Z,19.52
2023-05-10T09:59:30.369Z,20.44
2023-05-10T10:02:00.979Z,20.46
2023-05-10T10:04:29.951Z,20.15
2023-05-10T10:07:02.429Z,19.96
2023-05-10T10:09:30.073Z,20.00
2023-05-10T10:11:57.292Z,19.65
2023-05-10T10:14:25.192Z,19.56
2023-05-10T10:17:05.522Z,20.37
2023-05-10T10:19:35.276Z,20.77
2023-05-10T10:22:02.133Z,20.31
2023-05-10T10:24:29.084Z,20.49
2023-05-10T10:27:04.637Z,21.53
2023-05-10T10:30:10.083Z,20.70
2023-05-10T10:33:20.175Z,20.72
2023-05-10T10:35:47.877Z,21.04
2023-05-10T10:38:15.041Z,20.92
2023-05-10T10:40:41.991Z,20.36
2023-05-10T10:43:29.158Z,20.32
2023-05-10T10:46:11.070Z,20.63
2023-05-10T10:48:38.189Z,20.54
2023-05-10T10:51:05.108Z,20.55
2023-05-10T10:53:32.900Z,20.47
2023-05-10T10:56:11.504Z,20.37
2023-05-10T10:58:40.209Z,21.32
2023-05-10T11:01:15.910Z,21.50
2023-05-10T11:04:16.268Z,21.39
2023-05-10T11:06:43.252Z,20.40
2023-05-10T11:09:11.947Z,20.33
2023-05-10T11:11:55.415Z,19.98
2023-05-10T11:14:23.342Z,20.04
2023-05-10T11:16:50.574Z,20.11
2023-05-10T11:19:19.110Z,20.42
2023-05-10T11:22:11.850Z,21.03
2023-05-10T11:24:38.846Z,19.55
2023-05-10T11:27:07.024Z,20.68
2023-05-10T11:29:34.008Z,20.53
2023-05-10T11:32:01.154Z,20.03
2023-05-10T11:34:33.040Z,19.58
2023-05-10T11:37:00.962Z,20.32
2023-05-10T11:39:32.282Z,19.89
2023-05-10T11:41:59.925Z,19.00
2023-05-10T11:44:33.731Z,19.39
2023-05-10T11:47:02.146Z,20.22
2023-05-10T11:49:29.292Z,19.67
2023-05-10T11:52:08.737Z,19.02
2023-05-10T11:54:35.990Z,19.93
2023-05-10T11:57:03.201Z,20.12
2023-05-10T11:59:30.369Z,19.09
2023-05-10T12:01:57.526Z,19.47
2023-05-10T12:04:24.895Z,19.33
2023-05-10T12:06:52.134Z,18.89
2023-05-10T12:09:23.044Z,18.33
2023-05-10T12:11:58.921Z,18.92
2023-05-10T12:14:26.011Z,19.01
2023-05-10T12:16:52.993Z,19.00
2023-05-10T12:19:20.937Z,19.10
2023-05-10T12:21:48.422Z,18.71
2023-05-10T12:24:15.374Z,19.29
2023-05-10T12:29:26.724Z,19.38
2023-05-10T12:31:58.398Z,18.55
2023-05-10T12:34:32.634Z,18.71
2023-05-10T12:37:00.290Z,18.82
2023-05-10T12:39:27.533Z,18.66
2023-05-10T12:41:54.466Z,20.71
2023-05-10T12:44:21.386Z,21.20
2023-05-10T12:46:48.311Z,20.77
2023-05-10T12:49:15.122Z,20.63
2023-05-10T12:51:42.025Z,20.54
2023-05-10T12:54:08.861Z,20.49
2023-05-10T12:56:35.801Z,21.17
2023-05-10T12:59:02.646Z,21.01
2023-05-10T13:01:29.668Z,21.05
2023-05-10T13:03:56.589Z,20.96
2023-05-10T13:06:23.572Z,20.13
2023-05-10T13:08:50.474Z,20.40
2023-05-10T13:11:17.412Z,20.08
2023-05-10T13:13:44.332Z,20.16
2023-05-10T13:16:11.312Z,20.39
2023-05-10T13:18:38.194Z,20.32
2023-05-10T13:21:05.171Z,20.26
2023-05-10T13:23:32.202Z,20.06
2023-05-10T13:25:59.160Z,20.51
2023-05-10T13:28:26.004Z,20.22
2023-05-10T13:30:52.914Z,20.18
2023-05-10T13:33:19.772Z,19.71
2023-05-10T13:35:46.771Z,19.93
2023-05-10T13:38:14.147Z,19.91
2023-05-10T13:40:41.127Z,20.02
2023-05-10T13:43:07.999Z,19.76
2023-05-10T13:45:37.478Z,19.84
2023-05-10T13:48:04.708Z,20.40
2023-05-10T13:50:31.674Z,20.39
2023-05-10T13:52:58.553Z,19.88
2023-05-10T13:55:25.465Z,20.03
2023-05-10T13:57:52.502Z,20.56
2023-05-10T14:00:19.668Z,20.60
2023-05-10T14:02:46.573Z,21.13
2023-05-10T14:05:14.036Z,20.71
2023-05-10T14:07:41.031Z,20.74
2023-05-10T14:10:08.269Z,20.07
2023-05-10T14:12:35.251Z,20.64
2023-05-10T14:15:02.225Z,20.68
2023-05-10T14:17:29.109Z,20.37
2023-05-10T14:19:56.070Z,20.37
2023-05-10T14:22:22.909Z,20.34
2023-05-10T14:24:52.319Z,20.27
2023-05-10T14:27:19.684Z,20.27
2023-05-10T14:29:46.812Z,20.43
2023-05-10T14:32:13.702Z,20.44
2023-05-10T14:34:40.688Z,20.56
2023-05-10T14:37:07.899Z,20.87
2023-05-10T14:39:34.744Z,20.63
2023-05-10T14:42:01.600Z,20.66
2023-05-10T14:44:31.101Z,21.02
2023-05-10T14:46:58.020Z,21.65
2023-05-10T14:49:25.041Z,21.86
2023-05-10T14:51:51.968Z,21.61
2023-05-10T14:54:18.921Z,22.14
2023-05-10T14:56:45.882Z,22.01
2023-05-10T14:59:12.856Z,22.31
2023-05-10T15:01:40.300Z,22.23
2023-05-10T15:04:07.954Z,23.29
2023-05-10T15:06:35.910Z,22.97
2023-05-10T15:09:03.933Z,22.71
2023-05-10T15:11:30.888Z,23.13
2023-05-10T15:13:57.805Z,23.36
2023-05-10T15:16:25.155Z,23.41
2023-05-10T15:18:52.341Z,22.90
2023-05-10T15:21:19.287Z,22.39
2023-05-10T15:23:46.276Z,22.23
2023-05-10T15:26:13.123Z,21.34
2023-05-10T15:28:40.061Z,21.89
2023-05-10T15:31:07.090Z,22.41
2023-05-10T15:33:34.141Z,22.23
2023-05-10T15:36:01.115Z,22.54
2023-05-10T15:38:28.028Z,21.92
2023-05-10T15:40:58.074Z,22.50
2023-05-10T15:43:25.180Z,22.24
2023-05-10T15:45:52.067Z,23.07
2023-05-10T15:48:19.173Z,22.33
2023-05-10T15:50:46.059Z,22.72
2023-05-10T15:53:13.044Z,22.98
2023-05-10T15:55:39.979Z,23.35
2023-05-10T15:58:06.985Z,23.58
2023-05-10T16:00:34.049Z,24.09
2023-05-10T16:03:01.159Z,24.04
2023-05-10T16:05:29.211Z,24.22
2023-05-10T16:07:56.132Z,24.14
2023-05-10T16:10:23.070Z,23.71
2023-05-10T16:12:50.072Z,24.12
2023-05-10T16:15:17.507Z,24.34
2023-05-10T16:17:44.828Z,24.23
2023-05-10T16:20:12.316Z,24.49
2023-05-10T16:22:39.518Z,24.44
2023-05-10T16:25:06.848Z,24.64
2023-05-10T16:27:33.871Z,24.76
2023-05-10T16:30:00.733Z,24.81
2023-05-10T16:32:27.824Z,24.62
2023-05-10T16:34:54.704Z,24.74
2023-05-10T16:37:21.706Z,25.19
2023-05-10T16:39:48.685Z,24.69
2023-05-10T16:42:15.632Z,25.20
2023-05-10T16:44:42.484Z,24.65
2023-05-10T16:47:09.586Z,24.63
2023-05-10T16:49:36.759Z,24.92
2023-05-10T16:52:04.052Z,24.45
2023-05-10T16:54:31.036Z,24.77
2023-05-10T16:56:57.968Z,24.81
2023-05-10T16:59:24.880Z,24.60
2023-05-10T17:01:51.995Z,25.44
2023-05-10T17:04:19.232Z,24.91
2023-05-10T17:06:46.163Z,25.19
2023-05-10T17:09:13.028Z,25.31
2023-05-10T17:11:39.945Z,24.90
2023-05-10T17:14:06.855Z,24.83
2023-05-10T17:16:33.915Z,24.54
2023-05-10T17:19:00.917Z,24.98
2023-05-10T17:21:27.922Z,25.09
2023-05-10T17:23:54.926Z,25.30
2023-05-10T17:26:21.795Z,25.25
2023-05-10T17:28:48.653Z,25.47
2023-05-10T17:31:15.828Z,25.35
2023-05-10T17:33:42.740Z,25.09
2023-05-10T17:36:09.701Z,25.40
2023-05-10T17:38:36.906Z,25.10
2023-05-10T17:41:04.198Z,25.41
2023-05-10T17:43:31.098Z,25.64
2023-05-10T17:45:58.209Z,25.36
2023-05-10T17:48:25.253Z,25.55
2023-05-10T17:50:52.326Z,25.98
2023-05-10T17:53:19.474Z,25.94
2023-05-10T17:55:46.676Z,26.15
2023-05-10T17:58:13.493Z,26.29
2023-05-10T18:00:40.592Z,26.29
2023-05-10T18:03:07.543Z,26.50
2023-05-10T18:05:38.811Z,26.32
2023-05-10T18:08:06.492Z,26.47
2023-05-10T18:10:33.429Z,26.31
2023-05-10T18:13:00.635Z,25.84
2023-05-10T18:15:27.600Z,25.98
2023-05-10T18:17:54.599Z,26.15
2023-05-10T18:20:21.513Z,26.13
2023-05-10T18:22:48.493Z,26.01
2023-05-10T18:25:15.571Z,26.43
2023-05-10T18:27:42.856Z,26.52
2023-05-10T18:30:10.057Z,26.25
2023-05-10T18:32:36.997Z,27.09
2023-05-10T18:35:04.029Z,26.15
2023-05-10T18:37:31.037Z,26.76
2023-05-10T18:39:57.972Z,26.32
2023-05-10T18:42:25.367Z,26.47
2023-05-10T18:44:52.492Z,26.98
2023-05-10T18:47:19.460Z,27.31
2023-05-10T18:49:46.429Z,27.59
2023-05-10T18:52:13.441Z,27.80
2023-05-10T18:54:40.317Z,27.75
2023-05-10T18:57:07.237Z,27.36
2023-05-10T18:59:34.278Z,27.65
2023-05-10T19:02:01.295Z,27.65
2023-05-10T19:04:28.270Z,28.10
2023-05-10T19:06:55.245Z,28.29
2023-05-10T19:09:22.378Z,28.83
2023-05-10T19:11:51.784Z,29.30
2023-05-10T19:14:18.853Z,28.30
2023-05-10T19:16:45.744Z,28.44
2023-05-10T19:19:14.488Z,29.10
2023-05-10T19:21:41.461Z,28.74
2023-05-10T19:24:08.381Z,29.13
2023-05-10T19:26:37.235Z,29.13
2023-05-10T19:29:05.250Z,29.01
2023-05-10T19:31:33.022Z,27.53
2023-05-10T19:34:01.003Z,28.37
2023-05-10T19:36:28.146Z,28.12
2023-05-10T19:38:55.140Z,28.38
2023-05-10T19:41:22.700Z,28.51
2023-05-10T19:43:49.569Z,27.71
2023-05-10T19:46:17.963Z,27.78
2023-05-10T19:48:47.001Z,27.83
2023-05-10T19:51:14.154Z,27.76
2023-05-10T19:53:41.067Z,27.19
2023-05-10T19:56:08.201Z,27.53
2023-05-10T19:58:35.254Z,26.79
2023-05-10T20:01:02.604Z,27.43
2023-05-10T20:03:30.145Z,27.08
2023-05-10T20:05:57.075Z,27.35
2023-05-10T20:08:24.917Z,27.11
2023-05-10T20:10:51.887Z,26.95
2023-05-10T20:13:18.746Z,26.86
2023-05-10T20:15:46.625Z,27.11
2023-05-10T20:18:14.505Z,27.05
2023-05-10T20:20:53.744Z,26.69
2023-05-10T20:23:23.635Z,27.27
2023-05-10T20:26:20.979Z,27.12
2023-05-10T20:28:51.973Z,27.43
2023-05-10T20:31:19.807Z,27.28
2023-05-10T20:33:47.065Z,26.73
2023-05-10T20:36:14.218Z,26.81
2023-05-10T20:38:41.791Z,26.79
2023-05-10T20:41:08.644Z,27.23
2023-05-10T20:43:35.662Z,26.95
2023-05-10T20:46:02.846Z,26.90
2023-05-10T20:48:29.967Z,26.90
2023-05-10T20:50:57.778Z,27.11
2023-05-10T20:53:25.255Z,26.99
2023-05-10T20:55:52.143Z,27.46
2023-05-10T20:58:19.497Z,27.66
2023-05-10T21:00:46.837Z,28.26
2023-05-10T21:03:16.821Z,28.16
2023-05-10T21:05:43.780Z,28.35
2023-05-10T21:08:10.994Z,28.61
2023-05-10T21:10:37.863Z,29.01
2023-05-10T21:13:07.655Z,29.04
2023-05-10T21:15:34.572Z,29.91
2023-05-10T21:18:01.645Z,29.87
2023-05-10T21:20:30.090Z,30.31
2023-05-10T21:22:57.061Z,30.77
2023-05-10T21:25:23.927Z,30.68
2023-05-10T21:27:50.956Z,30.94
2023-05-10T21:30:19.193Z,30.60
2023-05-10T21:32:48.724Z,31.21
2023-05-10T21:35:15.689Z,30.40
2023-05-10T21:37:42.782Z,30.59
2023-05-10T21:40:28.883Z,30.95
2023-05-10T21:42:57.996Z,30.54
2023-05-10T21:45:24.818Z,30.35
2023-05-10T21:47:51.786Z,30.91
2023-05-10T21:50:18.958Z,30.64
2023-05-10T21:52:46.070Z,30.68
2023-05-10T21:55:12.974Z,31.04
2023-05-10T21:57:39.962Z,31.17
2023-05-10T22:00:07.609Z,30.58
2023-05-10T22:02:34.628Z,31.06
2023-05-10T22:05:02.573Z,31.01
2023-05-10T22:07:33.135Z,30.61
2023-05-10T22:10:00.215Z,30.91
2023-05-10T22:12:27.366Z,30.70
2023-05-10T22:15:09.135Z,31.03
2023-05-10T22:17:38.644Z,30.69
2023-05-10T22:20:07.961Z,30.86
2023-05-10T22:22:34.944Z,31.03
2023-05-10T22:25:01.860Z,31.45
2023-05-10T22:27:28.896Z,31.60
2023-05-10T22:29:56.640Z,31.43
2023-05-10T22:32:23.540Z,30.88
2023-05-10T22:34:50.436Z,30.91
2023-05-10T22:37:17.372Z,30.99
2023-05-10T22:39:46.152Z,31.28
2023-05-10T22:42:13.089Z,31.02
2023-05-10T22:44:39.898Z,30.99
2023-05-10T22:47:06.975Z,31.12
2023-05-10T22:49:34.350Z,31.11
2023-05-10T22:52:01.331Z,31.32
2023-05-10T22:54:28.193Z,31.66
2023-05-10T22:56:56.331Z,31.55
2023-05-10T22:59:23.544Z,31.56
2023-05-10T23:01:52.741Z,31.25
2023-05-10T23:04:19.639Z,31.90
2023-05-10T23:06:46.825Z,31.71
2023-05-10T23:09:13.662Z,31.55
2023-05-10T23:11:40.634Z,31.57
2023-05-10T23:14:07.792Z,31.59
2023-05-10T23:16:34.913Z,31.82
2023-05-10T23:19:01.946Z,32.33
2023-05-10T23:21:31.284Z,31.81
2023-05-10T23:23:59.174Z,32.04
2023-05-10T23:26:26.069Z,31.65
2023-05-10T23:28:52.931Z,32.61
2023-05-10T23:31:19.851Z,32.60
2023-05-10T23:33:46.714Z,32.71
2023-05-10T23:36:13.731Z,32.62
2023-05-10T23:38:40.599Z,32.87
2023-05-10T23:41:07.433Z,33.12
2023-05-10T23:43:34.280Z,32.99
2023-05-10T23:46:01.671Z,33.73
2023-05-10T23:48:28.933Z,33.36
2023-05-10T23:50:55.825Z,33.52
2023-05-10T23:53:25.099Z,33.39
2023-05-10T23:55:51.877Z,33.63
2023-05-10T23:58:18.656Z,33.76
